sensor_id;sensor_type;location;lat;lon;timestamp;pressure;altitude;pressure_sealevel;temperature;humidity
8318;BME280;4196;48.926;8.964;2023-03-21T00:02:07;99326.69;;;8.40;100.00
8318;BME280;4196;48.926;8.964;2023-03-21T00:04:54;99319.81;;;8.41;100.00
8318;BME280;4196;48.926;8.964;2023-03-21T00:07:48;99327.69;;;8.55;100.00
8318;BME280;4196;48.926;8.964;2023-03-21T00:10:35;99319.16;;;8.62;100.00
8318;BME280;4196;48.926;8.964;2023-03-21T00:13:30;99322.53;;;8.56;100.00
8318;BME280;4196;48.926;8.964;2023-03-21T00:16:19;99321.53;;;8.40;100.00
8318;BME280;4196;48.926;8.964;2023-03-21T00:19:12;99316.22;;;8.30;100.00
8318;BME280;4196;48.926;8.964;2023-03-21T00:21:59;99309.28;;;8.24;100.00
8318;BME280;4196;48.926;8.964;2023-03-21T00:24:54;99317.88;;;8.23;100.00
8318;BME280;4196;48.926;8.964;2023-03-21T00:27:40;99311.81;;;8.19;100.00
8318;BME280;4196;48.926;8.964;2023-03-21T00:30:47;99306.66;;;8.18;100.00
8318;BME280;4196;48.926;8.964;2023-03-21T00:33:34;99296.25;;;8.12;100.00
8318;BME280;4196;48.926;8.964;2023-03-21T00:36:21;99292.81;;;8.13;100.00
8318;BME280;4196;48.926;8.964;2023-03-21T00:39:11;99296.22;;;8.09;100.00
8318;BME280;4196;48.926;8.964;2023-03-21T00:41:57;99292.78;;;8.07;100.00
8318;BME280;4196;48.926;8.964;2023-03-21T00:44:44;99282.38;;;8.01;100.00
8318;BME280;4196;48.926;8.964;2023-03-21T00:47:30;99205.38;;;7.54;100.00
8318;BME280;4196;48.926;8.964;2023-03-21T00:50:17;99281.56;;;8.05;100.00
8318;BME280;4196;48.926;8.964;2023-03-21T00:53:05;99262.69;;;8.09;100.00
8318;BME280;4196;48.926;8.964;2023-03-21T00:55:52;99285.09;;;8.13;100.00
8318;BME280;4196;48.926;8.964;2023-03-21T00:58:38;99272.97;;;8.04;100.00
8318;BME280;4196;48.926;8.964;2023-03-21T01:01:25;99277.25;;;8.04;100.00
8318;BME280;4196;48.926;8.964;2023-03-21T01:04:17;99276.31;;;7.98;100.00
8318;BME280;4196;48.926;8.964;2023-03-21T01:07:04;99269.41;;;7.93;100.00
8318;BME280;4196;48.926;8.964;2023-03-21T01:09:50;99271.16;;;7.95;100.00
8318;BME280;4196;48.926;8.964;2023-03-21T01:12:37;99265.97;;;7.92;100.00
8318;BME280;4196;48.926;8.964;2023-03-21T01:15:24;99261.66;;;7.94;100.00
8318;BME280;4196;48.926;8.964;2023-03-21T01:18:11;99262.53;;;7.92;100.00
8318;BME280;4196;48.926;8.964;2023-03-21T01:20:58;99255.56;;;7.86;100.00
8318;BME280;4196;48.926;8.964;2023-03-21T01:23:46;99265.94;;;7.91;100.00
8318;BME280;4196;48.926;8.964;2023-03-21T01:26:32;99259.09;;;7.94;100.00
8318;BME280;4196;48.926;8.964;2023-03-21T01:29:18;99261.84;;;8.10;100.00
8318;BME280;4196;48.926;8.964;2023-03-21T01:32:05;99255.81;;;8.08;100.00
8318;BME280;4196;48.926;8.964;2023-03-21T01:34:52;99249.75;;;8.06;100.00
8318;BME280;4196;48.926;8.964;2023-03-21T01:37:40;99247.31;;;8.18;100.00
8318;BME280;4196;48.926;8.964;2023-03-21T01:40:29;99260.16;;;8.12;100.00
8318;BME280;4196;48.926;8.964;2023-03-21T01:43:34;99260.09;;;8.07;100.00
8318;BME280;4196;48.926;8.964;2023-03-21T01:46:48;99249.63;;;7.93;100.00
8318;BME280;4196;48.926;8.964;2023-03-21T01:50:14;99247.78;;;7.83;100.00
8318;BME280;4196;48.926;8.964;2023-03-21T01:53:14;99246.88;;;7.78;100.00
8318;BME280;4196;48.926;8.964;2023-03-21T01:56:07;99239.06;;;7.72;100.00
8318;BME280;4196;48.926;8.964;2023-03-21T01:59:24;99245.06;;;7.69;100.00
8318;BME280;4196;48.926;8.964;2023-03-21T02:02:32;99247.59;;;7.65;100.00
8318;BME280;4196;48.926;8.964;2023-03-21T02:05:39;99247.59;;;7.65;100.00
8318;BME280;4196;48.926;8.964;2023-03-21T02:08:31;99238.97;;;7.63;100.00
8318;BME280;4196;48.926;8.964;2023-03-21T02:11:29;99227.69;;;7.55;100.00
8318;BME280;4196;48.926;8.964;2023-03-21T02:14:18;99235.59;;;7.67;100.00
8318;BME280;4196;48.926;8.964;2023-03-21T02:17:41;99236.44;;;7.67;100.00
8318;BME280;4196;48.926;8.964;2023-03-21T02:21:08;99233.88;;;7.69;100.00
8318;BME280;4196;48.926;8.964;2023-03-21T02:27:14;99221.72;;;7.56;100.00
8318;BME280;4196;48.926;8.964;2023-03-21T02:34:30;99211.22;;;7.40;100.00
8318;BME280;4196;48.926;8.964;2023-03-21T02:40:09;99218.09;;;7.41;100.00
8318;BME280;4196;48.926;8.964;2023-03-21T02:43:08;99216.41;;;7.43;100.00
8318;BME280;4196;48.926;8.964;2023-03-21T02:46:19;99214.69;;;7.42;100.00
8318;BME280;4196;48.926;8.964;2023-03-21T02:49:23;99210.34;;;7.38;100.00
8318;BME280;4196;48.926;8.964;2023-03-21T02:52:17;99206.03;;;7.37;100.00
8318;BME280;4196;48.926;8.964;2023-03-21T02:55:28;99200.88;;;7.37;100.00
8318;BME280;4196;48.926;8.964;2023-03-21T02:58:22;99212.91;;;7.40;100.00
8318;BME280;4196;48.926;8.964;2023-03-21T03:01:14;99204.31;;;7.39;100.00
8318;BME280;4196;48.926;8.964;2023-03-21T03:04:26;99204.31;;;7.38;100.00
8318;BME280;4196;48.926;8.964;2023-03-21T03:10:24;99207.66;;;7.32;100.00
8318;BME280;4196;48.926;8.964;2023-03-21T03:13:37;99204.22;;;7.30;100.00
8318;BME280;4196;48.926;8.964;2023-03-21T03:19:27;99209.34;;;7.27;100.00
8318;BME280;4196;48.926;8.964;2023-03-21T03:22:24;99198.97;;;7.22;100.00
8318;BME280;4196;48.926;8.964;2023-03-21T03:25:18;99204.13;;;7.24;100.00
8318;BME280;4196;48.926;8.964;2023-03-21T03:28:28;99197.22;;;7.18;100.00
8318;BME280;4196;48.926;8.964;2023-03-21T03:31:22;99200.66;;;7.19;100.00
8318;BME280;4196;48.926;8.964;2023-03-21T03:34:19;99199.94;;;7.31;100.00
8318;BME280;4196;48.926;8.964;2023-03-21T03:37:10;99194.88;;;7.40;100.00
8318;BME280;4196;48.926;8.964;2023-03-21T03:43:02;99200.88;;;7.37;100.00
8318;BME280;4196;48.926;8.964;2023-03-21T03:46:00;99197.34;;;7.31;100.00
8318;BME280;4196;48.926;8.964;2023-03-21T03:48:53;99199.53;;;7.01;100.00
8318;BME280;4196;48.926;8.964;2023-03-21T03:54:48;99204.28;;;6.72;100.00
8318;BME280;4196;48.926;8.964;2023-03-21T03:57:39;99196.44;;;6.65;100.00
8318;BME280;4196;48.926;8.964;2023-03-21T04:00:26;99183.34;;;6.49;100.00
8318;BME280;4196;48.926;8.964;2023-03-21T04:03:16;99185.00;;;6.47;100.00
8318;BME280;4196;48.926;8.964;2023-03-21T04:06:04;99195.28;;;6.44;100.00
8318;BME280;4196;48.926;8.964;2023-03-21T04:08:51;99183.19;;;6.39;100.00
8318;BME280;4196;48.926;8.964;2023-03-21T04:11:38;99181.34;;;6.33;100.00
8318;BME280;4196;48.926;8.964;2023-03-21T04:14:25;99183.91;;;6.30;100.00
8318;BME280;4196;48.926;8.964;2023-03-21T04:17:28;99187.22;;;6.23;100.00
8318;BME280;4196;48.926;8.964;2023-03-21T04:20:15;99187.94;;;6.16;100.00
8318;BME280;4196;48.926;8.964;2023-03-21T04:23:16;99191.34;;;6.15;100.00
8318;BME280;4196;48.926;8.964;2023-03-21T04:26:07;99183.59;;;6.12;100.00
8318;BME280;4196;48.926;8.964;2023-03-21T04:28:58;99181.84;;;6.11;100.00
8318;BME280;4196;48.926;8.964;2023-03-21T04:32:21;99167.22;;;6.07;100.00
8318;BME280;4196;48.926;8.964;2023-03-21T04:35:17;99181.91;;;6.14;100.00
8318;BME280;4196;48.926;8.964;2023-03-21T04:38:04;99169.84;;;6.10;100.00
8318;BME280;4196;48.926;8.964;2023-03-21T04:40:51;99170.75;;;6.12;100.00
8318;BME280;4196;48.926;8.964;2023-03-21T04:43:40;99179.56;;;6.27;100.00
8318;BME280;4196;48.926;8.964;2023-03-21T04:46:26;99177.13;;;6.35;100.00
8318;BME280;4196;48.926;8.964;2023-03-21T04:49:13;99178.78;;;6.33;100.00
8318;BME280;4196;48.926;8.964;2023-03-21T04:52:01;99171.25;;;6.44;100.00
8318;BME280;4196;48.926;8.964;2023-03-21T04:54:48;99172.47;;;6.67;100.00
8318;BME280;4196;48.926;8.964;2023-03-21T04:57:36;99144.88;;;6.56;100.00
8318;BME280;4196;48.926;8.964;2023-03-21T05:00:23;99173.94;;;6.51;100.00
8318;BME280;4196;48.926;8.964;2023-03-21T05:03:11;99172.09;;;6.41;100.00
8318;BME280;4196;48.926;8.964;2023-03-21T05:06:06;99165.84;;;6.27;100.00
8318;BME280;4196;48.926;8.964;2023-03-21T05:08:55;99178.47;;;6.15;100.00
8318;BME280;4196;48.926;8.964;2023-03-21T05:11:45;99180.97;;;6.09;100.00
8318;BME280;4196;48.926;8.964;2023-03-21T05:14:33;99186.06;;;6.07;100.00
8318;BME280;4196;48.926;8.964;2023-03-21T05:17:19;99174.84;;;6.00;100.00
8318;BME280;4196;48.926;8.964;2023-03-21T05:20:10;99185.97;;;6.01;100.00
8318;BME280;4196;48.926;8.964;2023-03-21T05:22:56;99182.53;;;6.00;100.00
8318;BME280;4196;48.926;8.964;2023-03-21T05:25:43;99173.91;;;5.97;100.00
8318;BME280;4196;48.926;8.964;2023-03-21T05:28:37;99168.91;;;6.04;100.00
8318;BME280;4196;48.926;8.964;2023-03-21T05:31:25;99178.47;;;6.15;100.00
8318;BME280;4196;48.926;8.964;2023-03-21T05:34:23;99168.19;;;6.15;100.00
8318;BME280;4196;48.926;8.964;2023-03-21T05:37:09;99183.78;;;6.24;100.00
8318;BME280;4196;48.926;8.964;2023-03-21T05:40:08;99178.66;;;6.24;100.00
8318;BME280;4196;48.926;8.964;2023-03-21T05:42:59;99180.44;;;6.29;100.00
8318;BME280;4196;48.926;8.964;2023-03-21T05:45:46;99189.28;;;6.47;100.00
8318;BME280;4196;48.926;8.964;2023-03-21T05:48:35;99187.09;;;6.71;100.00
8318;BME280;4196;48.926;8.964;2023-03-21T05:51:32;99184.50;;;6.70;100.00
8318;BME280;4196;48.926;8.964;2023-03-21T05:54:19;99194.69;;;6.62;100.00
8318;BME280;4196;48.926;8.964;2023-03-21T05:57:07;99179.06;;;6.48;100.00
8318;BME280;4196;48.926;8.964;2023-03-21T06:00:15;99193.63;;;6.49;100.00
8318;BME280;4196;48.926;8.964;2023-03-21T06:03:08;99196.38;;;6.62;100.00
8318;BME280;4196;48.926;8.964;2023-03-21T06:06:15;99199.47;;;6.39;100.00
8318;BME280;4196;48.926;8.964;2023-03-21T06:09:10;99200.16;;;6.29;100.00
8318;BME280;4196;48.926;8.964;2023-03-21T06:11:59;99195.75;;;6.22;100.00
8318;BME280;4196;48.926;8.964;2023-03-21T06:14:50;99196.03;;;6.37;100.00
8318;BME280;4196;48.926;8.964;2023-03-21T06:17:41;99194.97;;;6.26;100.00
8318;BME280;4196;48.926;8.964;2023-03-21T06:20:30;99173.31;;;6.12;100.00
8318;BME280;4196;48.926;8.964;2023-03-21T06:23:24;99189.97;;;6.35;100.00
8318;BME280;4196;48.926;8.964;2023-03-21T06:26:11;99188.31;;;6.37;100.00
8318;BME280;4196;48.926;8.964;2023-03-21T06:28:58;99185.13;;;6.53;100.00
8318;BME280;4196;48.926;8.964;2023-03-21T06:31:45;99188.09;;;6.81;100.00
8318;BME280;4196;48.926;8.964;2023-03-21T06:34:32;99182.88;;;6.75;100.00
8318;BME280;4196;48.926;8.964;2023-03-21T06:37:21;99182.16;;;6.85;100.00
8318;BME280;4196;48.926;8.964;2023-03-21T06:40:08;99175.56;;;7.06;100.00
8318;BME280;4196;48.926;8.964;2023-03-21T06:42:54;99180.44;;;7.53;100.00
8318;BME280;4196;48.926;8.964;2023-03-21T06:45:42;99178.94;;;7.70;100.00
8318;BME280;4196;48.926;8.964;2023-03-21T06:48:30;99174.72;;;7.80;100.00
8318;BME280;4196;48.926;8.964;2023-03-21T06:51:17;99180.91;;;7.95;100.00
8318;BME280;4196;48.926;8.964;2023-03-21T06:54:27;99167.28;;;8.09;100.00
8318;BME280;4196;48.926;8.964;2023-03-21T06:57:27;99108.72;;;7.97;100.00
8318;BME280;4196;48.926;8.964;2023-03-21T07:00:14;99178.66;;;8.35;100.00
8318;BME280;4196;48.926;8.964;2023-03-21T07:03:04;99182.28;;;8.53;100.00
8318;BME280;4196;48.926;8.964;2023-03-21T07:05:52;99166.03;;;8.63;100.00
8318;BME280;4196;48.926;8.964;2023-03-21T07:08:40;99170.41;;;8.78;100.00
8318;BME280;4196;48.926;8.964;2023-03-21T07:11:27;99175.72;;;9.01;100.00
8318;BME280;4196;48.926;8.964;2023-03-21T07:14:14;99170.63;;;9.19;100.00
8318;BME280;4196;48.926;8.964;2023-03-21T07:17:01;99180.19;;;9.38;100.00
8318;BME280;4196;48.926;8.964;2023-03-21T07:19:48;99180.19;;;9.34;100.00
8318;BME280;4196;48.926;8.964;2023-03-21T07:22:37;99181.09;;;9.53;100.00
8318;BME280;4196;48.926;8.964;2023-03-21T07:25:24;99187.22;;;9.73;100.00
8318;BME280;4196;48.926;8.964;2023-03-21T07:28:11;99181.22;;;9.88;100.00
8318;BME280;4196;48.926;8.964;2023-03-21T07:30:59;99172.63;;;10.06;100.00
8318;BME280;4196;48.926;8.964;2023-03-21T07:33:46;99187.34;;;10.28;100.00
8318;BME280;4196;48.926;8.964;2023-03-21T07:36:33;99183.88;;;10.26;99.69
8318;BME280;4196;48.926;8.964;2023-03-21T07:39:19;99187.34;;;10.36;99.02
8318;BME280;4196;48.926;8.964;2023-03-21T07:42:06;99183.88;;;10.42;96.56
8318;BME280;4196;48.926;8.964;2023-03-21T07:44:58;99175.25;;;10.36;98.04
8318;BME280;4196;48.926;8.964;2023-03-21T07:47:50;99170.94;;;10.42;97.98
8318;BME280;4196;48.926;8.964;2023-03-21T07:50:38;99164.91;;;10.52;99.33
8318;BME280;4196;48.926;8.964;2023-03-21T07:53:25;99154.53;;;10.41;99.19
8318;BME280;4196;48.926;8.964;2023-03-21T07:56:12;99173.53;;;10.45;99.05
8318;BME280;4196;48.926;8.964;2023-03-21T07:58:58;99160.59;;;10.58;95.70
8318;BME280;4196;48.926;8.964;2023-03-21T08:01:44;99170.03;;;10.85;94.17
8318;BME280;4196;48.926;8.964;2023-03-21T08:04:31;99172.63;;;10.92;92.57
8318;BME280;4196;48.926;8.964;2023-03-21T08:07:23;99162.25;;;10.92;90.55
8318;BME280;4196;48.926;8.964;2023-03-21T08:10:10;99166.50;;;11.08;88.75
8318;BME280;4196;48.926;8.964;2023-03-21T08:12:57;99159.63;;;11.10;90.96
8318;BME280;4196;48.926;8.964;2023-03-21T08:15:43;99160.38;;;11.33;91.66
8318;BME280;4196;48.926;8.964;2023-03-21T08:18:30;99164.66;;;11.47;91.02
8318;BME280;4196;48.926;8.964;2023-03-21T08:21:16;99112.06;;;11.20;90.54
8318;BME280;4196;48.926;8.964;2023-03-21T08:24:03;99160.28;;;11.52;88.50
8318;BME280;4196;48.926;8.964;2023-03-21T08:26:50;99153.34;;;11.58;90.32
8318;BME280;4196;48.926;8.964;2023-03-21T08:29:37;99163.63;;;11.86;85.70
8318;BME280;4196;48.926;8.964;2023-03-21T08:32:26;99154.88;;;11.96;83.73
8318;BME280;4196;48.926;8.964;2023-03-21T08:35:17;99157.41;;;12.07;83.61
8318;BME280;4196;48.926;8.964;2023-03-21T08:38:05;99160.75;;;12.21;80.54
8318;BME280;4196;48.926;8.964;2023-03-21T08:40:52;99142.50;;;12.33;78.44
8318;BME280;4196;48.926;8.964;2023-03-21T08:43:38;99146.56;;;12.64;74.16
8318;BME280;4196;48.926;8.964;2023-03-21T08:46:25;99149.13;;;12.68;74.56
8318;BME280;4196;48.926;8.964;2023-03-21T08:49:12;99143.91;;;12.68;74.56
8318;BME280;4196;48.926;8.964;2023-03-21T08:51:58;99136.78;;;12.89;70.18
8318;BME280;4196;48.926;8.964;2023-03-21T08:54:45;99136.69;;;12.95;63.86
8318;BME280;4196;48.926;8.964;2023-03-21T08:57:31;99128.06;;;12.91;65.36
8318;BME280;4196;48.926;8.964;2023-03-21T09:00:18;99134.00;;;13.07;65.68
8318;BME280;4196;48.926;8.964;2023-03-21T09:03:06;99132.16;;;13.15;66.70
8318;BME280;4196;48.926;8.964;2023-03-21T09:05:53;99132.81;;;13.34;65.94
8318;BME280;4196;48.926;8.964;2023-03-21T09:08:40;99130.94;;;13.44;62.65
8318;BME280;4196;48.926;8.964;2023-03-21T09:11:32;99131.78;;;13.46;62.06
8318;BME280;4196;48.926;8.964;2023-03-21T09:14:18;99117.53;;;13.74;60.99
8318;BME280;4196;48.926;8.964;2023-03-21T09:17:09;99113.28;;;13.66;57.21
8318;BME280;4196;48.926;8.964;2023-03-21T09:19:55;99134.34;;;14.09;59.87
8318;BME280;4196;48.926;8.964;2023-03-21T09:22:42;99129.50;;;14.40;58.49
8318;BME280;4196;48.926;8.964;2023-03-21T09:25:29;99117.72;;;14.70;52.87
8318;BME280;4196;48.926;8.964;2023-03-21T09:28:16;99131.75;;;15.08;53.64
8318;BME280;4196;48.926;8.964;2023-03-21T09:31:03;99106.31;;;15.19;51.02
8318;BME280;4196;48.926;8.964;2023-03-21T09:33:51;99100.91;;;15.29;50.78
8318;BME280;4196;48.926;8.964;2023-03-21T09:36:38;99080.09;;;14.84;51.49
8318;BME280;4196;48.926;8.964;2023-03-21T09:39:27;99124.69;;;15.15;56.36
8318;BME280;4196;48.926;8.964;2023-03-21T09:45:26;99128.97;;;15.59;49.87
8318;BME280;4196;48.926;8.964;2023-03-21T09:48:25;99127.75;;;15.76;49.99
8318;BME280;4196;48.926;8.964;2023-03-21T09:51:17;99125.06;;;15.80;49.50
8318;BME280;4196;48.926;8.964;2023-03-21T09:54:10;99127.13;;;16.03;49.44
8318;BME280;4196;48.926;8.964;2023-03-21T09:57:04;99120.09;;;16.05;51.28
8318;BME280;4196;48.926;8.964;2023-03-21T09:59:53;99106.94;;;16.44;50.65
8318;BME280;4196;48.926;8.964;2023-03-21T10:02:47;99104.72;;;16.29;48.27
8318;BME280;4196;48.926;8.964;2023-03-21T10:05:37;99114.41;;;16.24;48.64
8318;BME280;4196;48.926;8.964;2023-03-21T10:08:45;99106.03;;;16.45;47.76
8318;BME280;4196;48.926;8.964;2023-03-21T10:11:51;99094.22;;;16.30;47.59
8318;BME280;4196;48.926;8.964;2023-03-21T10:14:43;99103.81;;;16.64;46.45
8318;BME280;4196;48.926;8.964;2023-03-21T10:17:42;99101.41;;;16.56;46.80
8318;BME280;4196;48.926;8.964;2023-03-21T10:20:35;99104.84;;;16.58;46.69
8318;BME280;4196;48.926;8.964;2023-03-21T10:23:27;99096.44;;;16.47;45.66
8318;BME280;4196;48.926;8.964;2023-03-21T10:26:14;99089.63;;;16.40;46.54
8318;BME280;4196;48.926;8.964;2023-03-21T10:29:02;99090.19;;;16.85;47.55
8318;BME280;4196;48.926;8.964;2023-03-21T10:31:50;99095.34;;;16.88;44.67
8318;BME280;4196;48.926;8.964;2023-03-21T10:34:44;99088.81;;;17.03;46.25
8318;BME280;4196;48.926;8.964;2023-03-21T10:37:32;99088.75;;;17.06;45.36
8318;BME280;4196;48.926;8.964;2023-03-21T10:40:21;99072.13;;;17.07;45.95
8318;BME280;4196;48.926;8.964;2023-03-21T10:43:34;99080.28;;;16.97;47.29
8318;BME280;4196;48.926;8.964;2023-03-21T10:46:25;99087.81;;;17.38;44.80
8318;BME280;4196;48.926;8.964;2023-03-21T10:49:14;99081.16;;;17.27;44.96
8318;BME280;4196;48.926;8.964;2023-03-21T10:52:16;99081.53;;;17.44;45.34
8318;BME280;4196;48.926;8.964;2023-03-21T10:58:17;99084.56;;;17.58;43.71
8318;BME280;4196;48.926;8.964;2023-03-21T11:01:07;99064.69;;;17.53;42.86
8318;BME280;4196;48.926;8.964;2023-03-21T11:03:59;99080.81;;;17.09;43.29
8318;BME280;4196;48.926;8.964;2023-03-21T11:06:52;99076.25;;;16.85;45.06
8318;BME280;4196;48.926;8.964;2023-03-21T11:09:49;99067.25;;;16.95;45.53
8318;BME280;4196;48.926;8.964;2023-03-21T11:12:40;99050.09;;;16.85;44.21
8318;BME280;4196;48.926;8.964;2023-03-21T11:16:05;99067.59;;;17.14;45.27
8318;BME280;4196;48.926;8.964;2023-03-21T11:18:58;99060.88;;;17.05;44.66
8318;BME280;4196;48.926;8.964;2023-03-21T11:21:45;99054.72;;;17.06;45.64
8318;BME280;4196;48.926;8.964;2023-03-21T11:24:33;99058.13;;;17.08;48.01
8318;BME280;4196;48.926;8.964;2023-03-21T11:27:20;99062.75;;;17.30;45.57
8318;BME280;4196;48.926;8.964;2023-03-21T11:30:19;99042.44;;;17.08;44.77
8318;BME280;4196;48.926;8.964;2023-03-21T11:33:06;99057.41;;;17.05;48.17
8318;BME280;4196;48.926;8.964;2023-03-21T11:36:02;99051.81;;;17.17;46.76
8318;BME280;4196;48.926;8.964;2023-03-21T11:38:56;99048.66;;;17.04;46.17
8318;BME280;4196;48.926;8.964;2023-03-21T11:41:47;99025.81;;;17.11;47.97
8318;BME280;4196;48.926;8.964;2023-03-21T11:44:42;99050.84;;;16.90;47.18
8318;BME280;4196;48.926;8.964;2023-03-21T11:47:29;99039.66;;;16.85;47.07
8318;BME280;4196;48.926;8.964;2023-03-21T11:53:39;99024.22;;;16.10;47.55
8318;BME280;4196;48.926;8.964;2023-03-21T11:56:34;99016.66;;;16.32;47.64
8318;BME280;4196;48.926;8.964;2023-03-21T11:59:37;99018.69;;;15.87;47.94
8318;BME280;4196;48.926;8.964;2023-03-21T12:05:26;99018.66;;;15.88;49.05
8318;BME280;4196;48.926;8.964;2023-03-21T12:09:22;99009.06;;;16.23;48.07
8318;BME280;4196;48.926;8.964;2023-03-21T12:14:57;99002.25;;;16.50;49.99
8318;BME280;4196;48.926;8.964;2023-03-21T12:21:04;99000.34;;;16.55;46.41
8318;BME280;4196;48.926;8.964;2023-03-21T12:33:27;98982.91;;;17.17;46.08
8318;BME280;4196;48.926;8.964;2023-03-21T12:36:37;98986.84;;;17.30;46.74
8318;BME280;4196;48.926;8.964;2023-03-21T12:39:34;98982.88;;;17.46;46.52
8318;BME280;4196;48.926;8.964;2023-03-21T12:45:38;98970.22;;;17.87;47.32
8318;BME280;4196;48.926;8.964;2023-03-21T12:48:40;98973.00;;;17.54;47.13
8318;BME280;4196;48.926;8.964;2023-03-21T12:51:33;98979.25;;;16.93;48.43
8318;BME280;4196;48.926;8.964;2023-03-21T13:00:27;98969.78;;;17.46;47.48
8318;BME280;4196;48.926;8.964;2023-03-21T13:03:22;98955.59;;;17.25;47.34
8318;BME280;4196;48.926;8.964;2023-03-21T13:06:25;98958.22;;;17.52;48.56
8318;BME280;4196;48.926;8.964;2023-03-21T13:09:37;98966.25;;;17.47;48.11
8318;BME280;4196;48.926;8.964;2023-03-21T13:12:41;98962.63;;;17.51;47.20
8318;BME280;4196;48.926;8.964;2023-03-21T13:21:40;98950.31;;;17.27;48.94
8318;BME280;4196;48.926;8.964;2023-03-21T13:24:32;98956.28;;;17.32;48.24
8318;BME280;4196;48.926;8.964;2023-03-21T13:33:13;98955.00;;;17.44;47.90
8318;BME280;4196;48.926;8.964;2023-03-21T13:36:07;98941.88;;;17.45;47.65
8318;BME280;4196;48.926;8.964;2023-03-21T13:38:59;98940.88;;;17.49;47.92
8318;BME280;4196;48.926;8.964;2023-03-21T13:41:47;98943.50;;;17.49;48.39
8318;BME280;4196;48.926;8.964;2023-03-21T13:44:40;98926.28;;;17.42;48.90
8318;BME280;4196;48.926;8.964;2023-03-21T13:47:39;98928.03;;;17.68;47.37
8318;BME280;4196;48.926;8.964;2023-03-21T13:50:29;98915.06;;;17.63;47.59
8318;BME280;4196;48.926;8.964;2023-03-21T13:53:21;98911.19;;;17.50;47.25
8318;BME280;4196;48.926;8.964;2023-03-21T13:56:28;98901.94;;;17.65;48.20
8318;BME280;4196;48.926;8.964;2023-03-21T13:59:35;98910.13;;;17.82;47.08
8318;BME280;4196;48.926;8.964;2023-03-21T14:02:27;98907.53;;;17.81;46.79
8318;BME280;4196;48.926;8.964;2023-03-21T14:05:20;98905.72;;;17.30;48.31
8318;BME280;4196;48.926;8.964;2023-03-21T14:08:15;98897.00;;;17.31;48.70
8318;BME280;4196;48.926;8.964;2023-03-21T14:11:17;98895.97;;;17.35;48.37
8318;BME280;4196;48.926;8.964;2023-03-21T14:14:05;98889.41;;;17.48;48.19
8318;BME280;4196;48.926;8.964;2023-03-21T14:16:52;98894.53;;;17.53;49.30
8318;BME280;4196;48.926;8.964;2023-03-21T14:19:39;98898.41;;;17.66;48.21
8318;BME280;4196;48.926;8.964;2023-03-21T14:22:26;98895.09;;;17.61;48.99
8318;BME280;4196;48.926;8.964;2023-03-21T14:25:16;98907.28;;;17.62;48.11
8318;BME280;4196;48.926;8.964;2023-03-21T14:28:07;98896.91;;;17.59;49.78
8318;BME280;4196;48.926;8.964;2023-03-21T14:30:59;98886.41;;;17.34;49.63
8318;BME280;4196;48.926;8.964;2023-03-21T14:33:55;98904.13;;;17.26;50.37
8318;BME280;4196;48.926;8.964;2023-03-21T14:36:43;98895.75;;;17.14;50.57
8318;BME280;4196;48.926;8.964;2023-03-21T14:39:42;98898.38;;;17.14;49.86
8318;BME280;4196;48.926;8.964;2023-03-21T14:42:33;98885.78;;;16.99;50.69
8318;BME280;4196;48.926;8.964;2023-03-21T14:45:28;98900.13;;;17.14;50.52
8318;BME280;4196;48.926;8.964;2023-03-21T14:48:16;98895.53;;;16.94;51.46
8318;BME280;4196;48.926;8.964;2023-03-21T14:51:09;98896.09;;;17.04;51.46
8318;BME280;4196;48.926;8.964;2023-03-21T14:53:57;98898.03;;;16.97;51.11
8318;BME280;4196;48.926;8.964;2023-03-21T14:56:46;98898.78;;;16.73;51.98
8318;BME280;4196;48.926;8.964;2023-03-21T14:59:35;98889.06;;;16.78;51.80
8318;BME280;4196;48.926;8.964;2023-03-21T15:02:26;98866.97;;;16.58;52.17
8318;BME280;4196;48.926;8.964;2023-03-21T15:05:35;98885.09;;;16.64;52.82
8318;BME280;4196;48.926;8.964;2023-03-21T15:08:25;98881.88;;;16.55;51.92
8318;BME280;4196;48.926;8.964;2023-03-21T15:11:12;98884.44;;;16.56;51.41
8318;BME280;4196;48.926;8.964;2023-03-21T15:14:02;98883.56;;;16.57;52.81
8318;BME280;4196;48.926;8.964;2023-03-21T15:16:49;98854.88;;;16.54;52.15
8318;BME280;4196;48.926;8.964;2023-03-21T15:19:37;98868.50;;;16.65;52.21
8318;BME280;4196;48.926;8.964;2023-03-21T15:22:32;98870.72;;;16.50;52.94
8318;BME280;4196;48.926;8.964;2023-03-21T15:25:25;98878.50;;;16.51;53.47
8318;BME280;4196;48.926;8.964;2023-03-21T15:28:13;98869.94;;;16.46;53.44
8318;BME280;4196;48.926;8.964;2023-03-21T15:31:00;98862.50;;;16.32;53.29
8318;BME280;4196;48.926;8.964;2023-03-21T15:33:48;98876.59;;;16.27;54.96
8318;BME280;4196;48.926;8.964;2023-03-21T15:36:42;98877.41;;;16.29;54.56
8318;BME280;4196;48.926;8.964;2023-03-21T15:39:30;98872.34;;;16.23;55.53
8318;BME280;4196;48.926;8.964;2023-03-21T15:42:36;98869.19;;;16.11;55.31
8318;BME280;4196;48.926;8.964;2023-03-21T15:45:25;98867.66;;;16.04;57.52
8318;BME280;4196;48.926;8.964;2023-03-21T15:48:13;98867.84;;;15.98;56.40
8318;BME280;4196;48.926;8.964;2023-03-21T15:51:04;98871.31;;;15.97;56.90
8318;BME280;4196;48.926;8.964;2023-03-21T15:53:51;98868.00;;;15.92;57.68
8318;BME280;4196;48.926;8.964;2023-03-21T15:56:42;98875.06;;;15.87;56.76
8318;BME280;4196;48.926;8.964;2023-03-21T15:59:34;98866.53;;;15.82;56.09
8318;BME280;4196;48.926;8.964;2023-03-21T16:02:23;98876.97;;;15.82;57.48
8318;BME280;4196;48.926;8.964;2023-03-21T16:08:19;98864.25;;;15.69;57.36
8318;BME280;4196;48.926;8.964;2023-03-21T16:11:18;98863.66;;;15.58;57.99
8318;BME280;4196;48.926;8.964;2023-03-21T16:14:04;98859.50;;;15.50;57.25
8318;BME280;4196;48.926;8.964;2023-03-21T16:16:51;98856.16;;;15.44;58.49
8318;BME280;4196;48.926;8.964;2023-03-21T16:19:38;98848.59;;;15.34;58.78
8318;BME280;4196;48.926;8.964;2023-03-21T16:22:25;98859.97;;;15.31;59.63
8318;BME280;4196;48.926;8.964;2023-03-21T16:25:13;98852.50;;;15.17;59.82
8318;BME280;4196;48.926;8.964;2023-03-21T16:28:00;98797.75;;;14.82;60.05
8318;BME280;4196;48.926;8.964;2023-03-21T16:30:46;98859.94;;;14.97;60.67
8318;BME280;4196;48.926;8.964;2023-03-21T16:33:32;98859.94;;;14.97;61.16
8318;BME280;4196;48.926;8.964;2023-03-21T16:36:22;98858.16;;;14.99;61.33
8318;BME280;4196;48.926;8.964;2023-03-21T16:39:16;98857.50;;;14.89;62.63
8318;BME280;4196;48.926;8.964;2023-03-21T16:42:04;98853.56;;;14.71;61.90
8318;BME280;4196;48.926;8.964;2023-03-21T16:44:50;98846.66;;;14.70;61.51
8318;BME280;4196;48.926;8.964;2023-03-21T16:47:37;98853.56;;;14.71;62.25
8318;BME280;4196;48.926;8.964;2023-03-21T16:53:11;98860.00;;;14.57;62.94
8318;BME280;4196;48.926;8.964;2023-03-21T16:55:58;98866.00;;;14.60;62.21